sensor_id;sensor_type;location;lat;lon;timestamp;temperature;humidity
67817;DHT22;54614;47.576;7.524;2023-03-26T00:01:13;24.30;49.90
67817;DHT22;54614;47.576;7.524;2023-03-26T00:03:45;24.30;49.80
67817;DHT22;54614;47.576;7.524;2023-03-26T00:06:19;24.30;50.10
67817;DHT22;54614;47.576;7.524;2023-03-26T00:08:50;24.40;50.30
67817;DHT22;54614;47.576;7.524;2023-03-26T00:11:20;24.30;50.30
67817;DHT22;54614;47.576;7.524;2023-03-26T00:13:47;24.30;50.30
67817;DHT22;54614;47.576;7.524;2023-03-26T00:16:16;24.30;50.40
67817;DHT22;54614;47.576;7.524;2023-03-26T00:18:44;24.30;50.40
67817;DHT22;54614;47.576;7.524;2023-03-26T00:21:15;24.40;50.50
67817;DHT22;54614;47.576;7.524;2023-03-26T00:23:45;24.30;50.40
67817;DHT22;54614;47.576;7.524;2023-03-26T00:26:14;24.30;50.30
67817;DHT22;54614;47.576;7.524;2023-03-26T00:28:42;24.30;50.00
67817;DHT22;54614;47.576;7.524;2023-03-26T00:31:10;24.30;49.80
67817;DHT22;54614;47.576;7.524;2023-03-26T00:33:39;24.30;50.20
67817;DHT22;54614;47.576;7.524;2023-03-26T00:36:11;24.20;50.20
67817;DHT22;54614;47.576;7.524;2023-03-26T00:38:39;24.20;50.30
67817;DHT22;54614;47.576;7.524;2023-03-26T00:41:08;24.30;50.60
67817;DHT22;54614;47.576;7.524;2023-03-26T00:43:43;24.20;50.40
67817;DHT22;54614;47.576;7.524;2023-03-26T00:46:12;24.30;50.50
67817;DHT22;54614;47.576;7.524;2023-03-26T00:48:38;24.30;50.50
67817;DHT22;54614;47.576;7.524;2023-03-26T00:51:08;24.30;50.60
67817;DHT22;54614;47.576;7.524;2023-03-26T00:53:35;24.30;50.40
67817;DHT22;54614;47.576;7.524;2023-03-26T00:56:04;24.20;50.30
67817;DHT22;54614;47.576;7.524;2023-03-26T00:58:31;24.20;50.00
67817;DHT22;54614;47.576;7.524;2023-03-26T01:01:03;24.30;50.30
67817;DHT22;54614;47.576;7.524;2023-03-26T01:03:33;24.20;50.60
67817;DHT22;54614;47.576;7.524;2023-03-26T01:06:27;24.20;50.40
67817;DHT22;54614;47.576;7.524;2023-03-26T01:08:58;24.20;50.50
67817;DHT22;54614;47.576;7.524;2023-03-26T01:11:34;24.30;50.70
67817;DHT22;54614;47.576;7.524;2023-03-26T01:14:05;24.30;50.60
67817;DHT22;54614;47.576;7.524;2023-03-26T01:19:06;24.20;50.50
67817;DHT22;54614;47.576;7.524;2023-03-26T01:21:37;24.20;50.80
67817;DHT22;54614;47.576;7.524;2023-03-26T01:24:07;24.30;50.10
67817;DHT22;54614;47.576;7.524;2023-03-26T01:38:43;24.20;49.70
67817;DHT22;54614;47.576;7.524;2023-03-26T01:44:40;24.20;49.70
67817;DHT22;54614;47.576;7.524;2023-03-26T01:47:24;24.20;49.70
67817;DHT22;54614;47.576;7.524;2023-03-26T01:49:51;24.20;49.90
67817;DHT22;54614;47.576;7.524;2023-03-26T01:52:20;24.20;49.80
67817;DHT22;54614;47.576;7.524;2023-03-26T01:54:54;24.20;49.70
67817;DHT22;54614;47.576;7.524;2023-03-26T02:00:41;24.20;49.70
67817;DHT22;54614;47.576;7.524;2023-03-26T02:03:30;24.20;49.70
67817;DHT22;54614;47.576;7.524;2023-03-26T02:06:15;24.20;49.70
67817;DHT22;54614;47.576;7.524;2023-03-26T02:08:55;24.20;49.70
67817;DHT22;54614;47.576;7.524;2023-03-26T02:11:25;24.20;49.80
67817;DHT22;54614;47.576;7.524;2023-03-26T02:13:52;24.20;49.90
67817;DHT22;54614;47.576;7.524;2023-03-26T02:16:19;24.20;49.90
67817;DHT22;54614;47.576;7.524;2023-03-26T02:18:47;24.20;49.80
67817;DHT22;54614;47.576;7.524;2023-03-26T02:21:21;24.20;50.40
67817;DHT22;54614;47.576;7.524;2023-03-26T02:23:55;24.20;49.70
67817;DHT22;54614;47.576;7.524;2023-03-26T02:26:28;24.20;49.80
67817;DHT22;54614;47.576;7.524;2023-03-26T02:28:56;24.20;49.90
67817;DHT22;54614;47.576;7.524;2023-03-26T02:31:23;24.10;49.80
67817;DHT22;54614;47.576;7.524;2023-03-26T02:33:52;24.10;49.90
67817;DHT22;54614;47.576;7.524;2023-03-26T02:36:20;24.10;49.80
67817;DHT22;54614;47.576;7.524;2023-03-26T02:38:49;24.10;49.90
67817;DHT22;54614;47.576;7.524;2023-03-26T02:41:16;24.10;50.10
67817;DHT22;54614;47.576;7.524;2023-03-26T02:43:42;24.10;50.10
67817;DHT22;54614;47.576;7.524;2023-03-26T02:46:08;24.10;50.30
67817;DHT22;54614;47.576;7.524;2023-03-26T02:48:34;24.10;50.20
67817;DHT22;54614;47.576;7.524;2023-03-26T02:51:01;24.10;49.80
67817;DHT22;54614;47.576;7.524;2023-03-26T02:53:27;24.10;49.80
67817;DHT22;54614;47.576;7.524;2023-03-26T02:55:57;24.10;49.90
67817;DHT22;54614;47.576;7.524;2023-03-26T02:58:25;24.70;50.10
67817;DHT22;54614;47.576;7.524;2023-03-26T03:00:52;24.10;50.00
67817;DHT22;54614;47.576;7.524;2023-03-26T03:03:25;24.10;49.90
67817;DHT22;54614;47.576;7.524;2023-03-26T03:05:53;24.10;49.90
67817;DHT22;54614;47.576;7.524;2023-03-26T03:08:22;24.10;49.90
67817;DHT22;54614;47.576;7.524;2023-03-26T03:11:08;24.10;49.90
67817;DHT22;54614;47.576;7.524;2023-03-26T03:13:39;24.10;50.00
67817;DHT22;54614;47.576;7.524;2023-03-26T03:16:05;24.10;50.00
67817;DHT22;54614;47.576;7.524;2023-03-26T03:18:32;23.80;49.80
67817;DHT22;54614;47.576;7.524;2023-03-26T03:20:58;24.10;50.10
67817;DHT22;54614;47.576;7.524;2023-03-26T03:23:23;24.10;50.00
67817;DHT22;54614;47.576;7.524;2023-03-26T03:25:49;24.10;50.20
67817;DHT22;54614;47.576;7.524;2023-03-26T03:28:17;24.10;50.10
67817;DHT22;54614;47.576;7.524;2023-03-26T03:30:43;24.10;50.00
67817;DHT22;54614;47.576;7.524;2023-03-26T03:33:10;24.10;50.10
67817;DHT22;54614;47.576;7.524;2023-03-26T03:35:37;24.10;50.00
67817;DHT22;54614;47.576;7.524;2023-03-26T03:38:04;24.10;50.00
67817;DHT22;54614;47.576;7.524;2023-03-26T03:40:30;24.10;50.30
67817;DHT22;54614;47.576;7.524;2023-03-26T03:42:56;24.10;50.30
67817;DHT22;54614;47.576;7.524;2023-03-26T03:45:22;24.20;50.10
67817;DHT22;54614;47.576;7.524;2023-03-26T03:47:48;24.10;50.30
67817;DHT22;54614;47.576;7.524;2023-03-26T03:50:14;24.10;50.70
67817;DHT22;54614;47.576;7.524;2023-03-26T03:52:40;24.00;50.10
67817;DHT22;54614;47.576;7.524;2023-03-26T03:55:06;24.10;50.10
67817;DHT22;54614;47.576;7.524;2023-03-26T03:57:32;24.00;50.00
67817;DHT22;54614;47.576;7.524;2023-03-26T03:59:59;24.10;50.20
67817;DHT22;54614;47.576;7.524;2023-03-26T04:02:25;24.00;50.20
67817;DHT22;54614;47.576;7.524;2023-03-26T04:04:55;24.00;50.40
67817;DHT22;54614;47.576;7.524;2023-03-26T04:07:24;24.10;50.00
67817;DHT22;54614;47.576;7.524;2023-03-26T04:09:51;24.00;49.90
67817;DHT22;54614;47.576;7.524;2023-03-26T04:12:18;24.00;50.20
67817;DHT22;54614;47.576;7.524;2023-03-26T04:14:44;24.00;50.00
67817;DHT22;54614;47.576;7.524;2023-03-26T04:17:10;24.00;50.00
67817;DHT22;54614;47.576;7.524;2023-03-26T04:19:40;24.00;50.20
67817;DHT22;54614;47.576;7.524;2023-03-26T04:22:08;24.00;50.00
67817;DHT22;54614;47.576;7.524;2023-03-26T04:24:36;24.00;50.20
67817;DHT22;54614;47.576;7.524;2023-03-26T04:27:07;24.00;50.20
67817;DHT22;54614;47.576;7.524;2023-03-26T04:29:40;24.00;50.10
67817;DHT22;54614;47.576;7.524;2023-03-26T04:32:21;24.00;50.00
67817;DHT22;54614;47.576;7.524;2023-03-26T04:34:51;24.00;50.00
67817;DHT22;54614;47.576;7.524;2023-03-26T04:40:10;24.00;50.00
67817;DHT22;54614;47.576;7.524;2023-03-26T04:42:39;24.00;50.00
67817;DHT22;54614;47.576;7.524;2023-03-26T04:45:12;24.00;50.10
67817;DHT22;54614;47.576;7.524;2023-03-26T04:47:39;24.00;50.70
67817;DHT22;54614;47.576;7.524;2023-03-26T04:50:06;24.00;50.20
67817;DHT22;54614;47.576;7.524;2023-03-26T04:52:34;24.00;50.00
67817;DHT22;54614;47.576;7.524;2023-03-26T04:55:01;24.00;50.10
67817;DHT22;54614;47.576;7.524;2023-03-26T04:57:34;24.00;50.00
67817;DHT22;54614;47.576;7.524;2023-03-26T05:00:08;24.00;50.10
67817;DHT22;54614;47.576;7.524;2023-03-26T05:02:43;24.00;50.30
67817;DHT22;54614;47.576;7.524;2023-03-26T05:05:10;24.00;50.90
67817;DHT22;54614;47.576;7.524;2023-03-26T05:07:36;24.00;50.20
67817;DHT22;54614;47.576;7.524;2023-03-26T05:10:04;24.00;50.10
67817;DHT22;54614;47.576;7.524;2023-03-26T05:12:30;24.00;50.20
67817;DHT22;54614;47.576;7.524;2023-03-26T05:14:56;24.00;51.20
67817;DHT22;54614;47.576;7.524;2023-03-26T05:17:23;24.00;50.30
67817;DHT22;54614;47.576;7.524;2023-03-26T05:19:50;24.00;50.40
67817;DHT22;54614;47.576;7.524;2023-03-26T05:22:17;24.00;50.10
67817;DHT22;54614;47.576;7.524;2023-03-26T05:24:43;24.00;50.10
67817;DHT22;54614;47.576;7.524;2023-03-26T05:27:13;24.00;50.30
67817;DHT22;54614;47.576;7.524;2023-03-26T05:29:41;23.90;50.10
67817;DHT22;54614;47.576;7.524;2023-03-26T05:32:08;24.00;50.40
67817;DHT22;54614;47.576;7.524;2023-03-26T05:34:34;24.00;50.20
67817;DHT22;54614;47.576;7.524;2023-03-26T05:37:02;23.90;50.30
67817;DHT22;54614;47.576;7.524;2023-03-26T05:39:29;24.00;50.00
67817;DHT22;54614;47.576;7.524;2023-03-26T05:41:54;23.90;50.10
67817;DHT22;54614;47.576;7.524;2023-03-26T05:44:20;23.90;50.10
67817;DHT22;54614;47.576;7.524;2023-03-26T05:46:46;23.90;50.10
67817;DHT22;54614;47.576;7.524;2023-03-26T05:49:12;23.90;50.10
67817;DHT22;54614;47.576;7.524;2023-03-26T05:51:38;23.90;50.30
67817;DHT22;54614;47.576;7.524;2023-03-26T05:54:04;23.90;50.20
67817;DHT22;54614;47.576;7.524;2023-03-26T05:56:30;23.90;50.10
67817;DHT22;54614;47.576;7.524;2023-03-26T05:58:56;24.00;50.40
67817;DHT22;54614;47.576;7.524;2023-03-26T06:01:22;23.90;50.30
67817;DHT22;54614;47.576;7.524;2023-03-26T06:03:50;24.00;50.30
67817;DHT22;54614;47.576;7.524;2023-03-26T06:06:18;23.90;50.20
67817;DHT22;54614;47.576;7.524;2023-03-26T06:08:46;23.90;50.20
67817;DHT22;54614;47.576;7.524;2023-03-26T06:11:16;23.90;50.20
67817;DHT22;54614;47.576;7.524;2023-03-26T06:13:44;23.90;50.20
67817;DHT22;54614;47.576;7.524;2023-03-26T06:16:12;23.90;50.20
67817;DHT22;54614;47.576;7.524;2023-03-26T06:18:39;23.90;50.40
67817;DHT22;54614;47.576;7.524;2023-03-26T06:21:06;23.90;50.60
67817;DHT22;54614;47.576;7.524;2023-03-26T06:23:32;23.90;50.30
67817;DHT22;54614;47.576;7.524;2023-03-26T06:25:58;23.90;50.30
67817;DHT22;54614;47.576;7.524;2023-03-26T06:28:25;23.90;50.50
67817;DHT22;54614;47.576;7.524;2023-03-26T06:30:51;23.90;51.00
67817;DHT22;54614;47.576;7.524;2023-03-26T06:33:17;23.90;50.60
67817;DHT22;54614;47.576;7.524;2023-03-26T06:35:43;23.90;50.30
67817;DHT22;54614;47.576;7.524;2023-03-26T06:38:11;23.90;50.30
67817;DHT22;54614;47.576;7.524;2023-03-26T06:40:37;23.90;50.20
67817;DHT22;54614;47.576;7.524;2023-03-26T06:43:03;23.90;50.30
67817;DHT22;54614;47.576;7.524;2023-03-26T06:45:31;23.90;50.40
67817;DHT22;54614;47.576;7.524;2023-03-26T06:47:57;23.90;50.30
67817;DHT22;54614;47.576;7.524;2023-03-26T06:50:24;23.90;50.70
67817;DHT22;54614;47.576;7.524;2023-03-26T06:52:54;23.80;50.30
67817;DHT22;54614;47.576;7.524;2023-03-26T06:55:21;23.90;50.30
67817;DHT22;54614;47.576;7.524;2023-03-26T06:57:48;23.80;50.40
67817;DHT22;54614;47.576;7.524;2023-03-26T07:00:16;23.80;50.20
67817;DHT22;54614;47.576;7.524;2023-03-26T07:02:43;23.90;50.30
67817;DHT22;54614;47.576;7.524;2023-03-26T07:05:09;23.80;50.60
67817;DHT22;54614;47.576;7.524;2023-03-26T07:07:35;23.80;50.20
67817;DHT22;54614;47.576;7.524;2023-03-26T07:10:00;23.80;50.20
67817;DHT22;54614;47.576;7.524;2023-03-26T07:12:26;23.80;50.10
67817;DHT22;54614;47.576;7.524;2023-03-26T07:14:52;23.80;50.40
67817;DHT22;54614;47.576;7.524;2023-03-26T07:17:18;25.00;51.10
67817;DHT22;54614;47.576;7.524;2023-03-26T07:19:44;23.80;50.60
67817;DHT22;54614;47.576;7.524;2023-03-26T07:22:28;23.80;50.60
67817;DHT22;54614;47.576;7.524;2023-03-26T07:24:54;23.80;50.60
67817;DHT22;54614;47.576;7.524;2023-03-26T07:30:38;23.80;50.60
67817;DHT22;54614;47.576;7.524;2023-03-26T07:33:27;23.80;50.70
67817;DHT22;54614;47.576;7.524;2023-03-26T07:45:53;23.80;50.60
67817;DHT22;54614;47.576;7.524;2023-03-26T07:48:21;23.80;50.70
67817;DHT22;54614;47.576;7.524;2023-03-26T07:50:53;23.80;50.70
67817;DHT22;54614;47.576;7.524;2023-03-26T07:53:20;23.80;50.70
67817;DHT22;54614;47.576;7.524;2023-03-26T07:55:56;23.80;50.70
67817;DHT22;54614;47.576;7.524;2023-03-26T08:01:40;23.80;50.50
67817;DHT22;54614;47.576;7.524;2023-03-26T08:04:57;23.80;50.40
67817;DHT22;54614;47.576;7.524;2023-03-26T08:28:15;23.90;50.80
67817;DHT22;54614;47.576;7.524;2023-03-26T08:30:44;23.90;50.70
67817;DHT22;54614;47.576;7.524;2023-03-26T08:33:14;23.90;50.60
67817;DHT22;54614;47.576;7.524;2023-03-26T08:35:47;23.90;50.60
67817;DHT22;54614;47.576;7.524;2023-03-26T08:38:16;23.90;50.50
67817;DHT22;54614;47.576;7.524;2023-03-26T09:16:54;24.20;51.40
67817;DHT22;54614;47.576;7.524;2023-03-26T09:33:52;24.20;51.10
67817;DHT22;54614;47.576;7.524;2023-03-26T09:39:16;24.00;51.50
67817;DHT22;54614;47.576;7.524;2023-03-26T09:45:01;24.20;51.30
67817;DHT22;54614;47.576;7.524;2023-03-26T09:50:56;24.40;51.10
67817;DHT22;54614;47.576;7.524;2023-03-26T10:03:11;24.00;50.20
67817;DHT22;54614;47.576;7.524;2023-03-26T10:11:04;23.80;49.00
67817;DHT22;54614;47.576;7.524;2023-03-26T10:17:12;23.70;48.80
67817;DHT22;54614;47.576;7.524;2023-03-26T10:26:14;23.90;48.70
67817;DHT22;54614;47.576;7.524;2023-03-26T10:29:08;24.10;48.30
67817;DHT22;54614;47.576;7.524;2023-03-26T10:40:50;24.20;49.10
67817;DHT22;54614;47.576;7.524;2023-03-26T10:46:21;24.50;49.40
67817;DHT22;54614;47.576;7.524;2023-03-26T10:52:02;24.50;50.20
67817;DHT22;54614;47.576;7.524;2023-03-26T10:54:54;24.50;50.40
67817;DHT22;54614;47.576;7.524;2023-03-26T11:00:22;24.70;49.80
67817;DHT22;54614;47.576;7.524;2023-03-26T11:08:55;24.70;48.90
67817;DHT22;54614;47.576;7.524;2023-03-26T11:12:03;24.70;49.30
67817;DHT22;54614;47.576;7.524;2023-03-26T11:17:51;24.60;49.90
67817;DHT22;54614;47.576;7.524;2023-03-26T11:20:45;24.60;50.70
67817;DHT22;54614;47.576;7.524;2023-03-26T11:23:29;24.40;50.40
67817;DHT22;54614;47.576;7.524;2023-03-26T11:32:21;24.50;50.30
67817;DHT22;54614;47.576;7.524;2023-03-26T11:37:53;24.30;50.70
67817;DHT22;54614;47.576;7.524;2023-03-26T11:40:36;24.30;51.10
67817;DHT22;54614;47.576;7.524;2023-03-26T11:43:12;24.40;50.90
67817;DHT22;54614;47.576;7.524;2023-03-26T11:45:44;24.30;51.20
67817;DHT22;54614;47.576;7.524;2023-03-26T11:48:45;23.90;51.10
67817;DHT22;54614;47.576;7.524;2023-03-26T11:51:26;24.30;51.40
67817;DHT22;54614;47.576;7.524;2023-03-26T11:53:56;24.50;51.30
67817;DHT22;54614;47.576;7.524;2023-03-26T12:04:40;24.90;51.90
67817;DHT22;54614;47.576;7.524;2023-03-26T12:07:28;24.90;51.60
67817;DHT22;54614;47.576;7.524;2023-03-26T12:10:04;24.90;51.40
67817;DHT22;54614;47.576;7.524;2023-03-26T12:12:36;24.90;51.50
67817;DHT22;54614;47.576;7.524;2023-03-26T12:15:15;25.00;51.40
67817;DHT22;54614;47.576;7.524;2023-03-26T12:17:48;25.20;51.40
67817;DHT22;54614;47.576;7.524;2023-03-26T12:20:32;25.00;51.90
67817;DHT22;54614;47.576;7.524;2023-03-26T12:23:03;25.00;51.40
67817;DHT22;54614;47.576;7.524;2023-03-26T12:25:36;24.90;51.50
67817;DHT22;54614;47.576;7.524;2023-03-26T12:28:15;24.90;51.40
67817;DHT22;54614;47.576;7.524;2023-03-26T12:33:29;24.90;61.60
67817;DHT22;54614;47.576;7.524;2023-03-26T12:36:24;24.90;61.90
67817;DHT22;54614;47.576;7.524;2023-03-26T12:38:56;24.60;61.40
67817;DHT22;54614;47.576;7.524;2023-03-26T12:41:36;25.00;61.90
67817;DHT22;54614;47.576;7.524;2023-03-26T12:44:34;25.00;59.80
67817;DHT22;54614;47.576;7.524;2023-03-26T12:47:16;25.00;60.20
67817;DHT22;54614;47.576;7.524;2023-03-26T12:49:46;24.80;61.20
67817;DHT22;54614;47.576;7.524;2023-03-26T12:55:12;24.80;60.50
67817;DHT22;54614;47.576;7.524;2023-03-26T12:58:19;24.90;61.00
67817;DHT22;54614;47.576;7.524;2023-03-26T13:04:04;24.90;60.10
67817;DHT22;54614;47.576;7.524;2023-03-26T13:06:47;24.60;60.50
67817;DHT22;54614;47.576;7.524;2023-03-26T13:12:49;24.40;61.00
67817;DHT22;54614;47.576;7.524;2023-03-26T13:15:58;24.70;61.00
67817;DHT22;54614;47.576;7.524;2023-03-26T13:18:46;24.40;60.60
67817;DHT22;54614;47.576;7.524;2023-03-26T13:21:30;24.40;60.70
67817;DHT22;54614;47.576;7.524;2023-03-26T13:46:45;24.50;62.60
67817;DHT22;54614;47.576;7.524;2023-03-26T13:49:28;24.60;62.00
67817;DHT22;54614;47.576;7.524;2023-03-26T13:52:09;24.70;61.30
67817;DHT22;54614;47.576;7.524;2023-03-26T13:55:21;24.80;60.20
67817;DHT22;54614;47.576;7.524;2023-03-26T14:01:17;25.00;60.50
67817;DHT22;54614;47.576;7.524;2023-03-26T14:09:26;24.80;61.20
67817;DHT22;54614;47.576;7.524;2023-03-26T14:20:31;24.60;63.00
67817;DHT22;54614;47.576;7.524;2023-03-26T14:26:49;24.70;63.40
67817;DHT22;54614;47.576;7.524;2023-03-26T14:41:24;25.30;62.00
67817;DHT22;54614;47.576;7.524;2023-03-26T14:47:12;25.40;62.10
67817;DHT22;54614;47.576;7.524;2023-03-26T14:53:36;25.40;62.10
67817;DHT22;54614;47.576;7.524;2023-03-26T14:56:37;25.40;62.00
67817;DHT22;54614;47.576;7.524;2023-03-26T15:10:51;25.50;62.40
67817;DHT22;54614;47.576;7.524;2023-03-26T15:35:16;25.60;62.50
67817;DHT22;54614;47.576;7.524;2023-03-26T15:38:17;25.70;63.50
67817;DHT22;54614;47.576;7.524;2023-03-26T15:41:24;25.50;62.60
67817;DHT22;54614;47.576;7.524;2023-03-26T15:47:18;25.50;63.10
67817;DHT22;54614;47.576;7.524;2023-03-26T15:50:23;25.50;62.50
67817;DHT22;54614;47.576;7.524;2023-03-26T15:53:33;25.50;62.40
67817;DHT22;54614;47.576;7.524;2023-03-26T16:04:41;25.50;62.40
67817;DHT22;54614;47.576;7.524;2023-03-26T16:18:44;25.20;61.30
67817;DHT22;54614;47.576;7.524;2023-03-26T16:21:35;24.90;61.40
67817;DHT22;54614;47.576;7.524;2023-03-26T16:24:27;25.00;61.50
67817;DHT22;54614;47.576;7.524;2023-03-26T16:27:05;24.90;61.50
67817;DHT22;54614;47.576;7.524;2023-03-26T16:32:32;24.80;60.70
67817;DHT22;54614;47.576;7.524;2023-03-26T16:48:46;24.90;61.20
67817;DHT22;54614;47.576;7.524;2023-03-26T16:57:27;25.00;61.00
67817;DHT22;54614;47.576;7.524;2023-03-26T17:06:17;24.90;61.90
67817;DHT22;54614;47.576;7.524;2023-03-26T17:12:13;24.90;63.00
67817;DHT22;54614;47.576;7.524;2023-03-26T17:17:51;24.90;62.90
67817;DHT22;54614;47.576;7.524;2023-03-26T17:29:06;24.90;63.80
67817;DHT22;54614;47.576;7.524;2023-03-26T17:37:24;24.80;64.80
67817;DHT22;54614;47.576;7.524;2023-03-26T17:42:36;24.60;66.20
67817;DHT22;54614;47.576;7.524;2023-03-26T17:45:16;24.60;67.20
67817;DHT22;54614;47.576;7.524;2023-03-26T17:50:49;24.30;67.20
67817;DHT22;54614;47.576;7.524;2023-03-26T17:53:23;24.50;66.90
67817;DHT22;54614;47.576;7.524;2023-03-26T17:55:56;24.20;67.20
67817;DHT22;54614;47.576;7.524;2023-03-26T17:58:45;24.10;66.90
67817;DHT22;54614;47.576;7.524;2023-03-26T18:04:07;24.10;66.90
67817;DHT22;54614;47.576;7.524;2023-03-26T18:18:42;24.00;66.80
67817;DHT22;54614;47.576;7.524;2023-03-26T18:21:26;24.10;66.80
67817;DHT22;54614;47.576;7.524;2023-03-26T18:23:56;24.20;66.50
67817;DHT22;54614;47.576;7.524;2023-03-26T18:26:39;24.30;66.00
67817;DHT22;54614;47.576;7.524;2023-03-26T18:29:26;24.50;64.90
67817;DHT22;54614;47.576;7.524;2023-03-26T18:32:01;24.50;64.90
67817;DHT22;54614;47.576;7.524;2023-03-26T18:37:42;24.60;64.20
67817;DHT22;54614;47.576;7.524;2023-03-26T18:40:15;24.70;64.90
67817;DHT22;54614;47.576;7.524;2023-03-26T18:42:47;24.60;64.20
67817;DHT22;54614;47.576;7.524;2023-03-26T18:45:32;24.70;64.40
67817;DHT22;54614;47.576;7.524;2023-03-26T18:48:07;24.60;63.40
67817;DHT22;54614;47.576;7.524;2023-03-26T18:51:03;24.70;64.60
67817;DHT22;54614;47.576;7.524;2023-03-26T18:53:38;24.60;64.50
67817;DHT22;54614;47.576;7.524;2023-03-26T18:56:35;24.70;64.40
67817;DHT22;54614;47.576;7.524;2023-03-26T18:59:04;24.90;64.70
67817;DHT22;54614;47.576;7.524;2023-03-26T19:01:36;24.60;65.10
67817;DHT22;54614;47.576;7.524;2023-03-26T19:04:06;24.60;65.80
67817;DHT22;54614;47.576;7.524;2023-03-26T19:06:39;24.60;65.20
67817;DHT22;54614;47.576;7.524;2023-03-26T19:09:09;24.60;64.90
67817;DHT22;54614;47.576;7.524;2023-03-26T19:11:37;24.70;65.30
67817;DHT22;54614;47.576;7.524;2023-03-26T19:14:12;24.70;65.30
67817;DHT22;54614;47.576;7.524;2023-03-26T19:16:41;24.80;64.90
67817;DHT22;54614;47.576;7.524;2023-03-26T19:19:17;24.60;65.00
67817;DHT22;54614;47.576;7.524;2023-03-26T19:21:47;24.60;65.10
67817;DHT22;54614;47.576;7.524;2023-03-26T19:24:17;24.60;64.70
67817;DHT22;54614;47.576;7.524;2023-03-26T19:26:46;24.60;64.60
67817;DHT22;54614;47.576;7.524;2023-03-26T19:29:16;24.50;64.60
67817;DHT22;54614;47.576;7.524;2023-03-26T19:31:50;24.60;65.50
67817;DHT22;54614;47.576;7.524;2023-03-26T19:34:38;24.50;64.50
67817;DHT22;54614;47.576;7.524;2023-03-26T19:37:25;24.60;64.80
67817;DHT22;54614;47.576;7.524;2023-03-26T19:40:22;24.50;64.50
67817;DHT22;54614;47.576;7.524;2023-03-26T19:42:58;24.50;64.10
67817;DHT22;54614;47.576;7.524;2023-03-26T19:45:24;24.50;63.90
67817;DHT22;54614;47.576;7.524;2023-03-26T19:47:51;24.50;64.20
67817;DHT22;54614;47.576;7.524;2023-03-26T19:50:24;24.50;64.40
67817;DHT22;54614;47.576;7.524;2023-03-26T19:55:57;24.50;64.30
67817;DHT22;54614;47.576;7.524;2023-03-26T19:58:32;24.40;64.60
67817;DHT22;54614;47.576;7.524;2023-03-26T20:01:00;24.50;64.10
67817;DHT22;54614;47.576;7.524;2023-03-26T20:03:39;24.50;65.50
67817;DHT22;54614;47.576;7.524;2023-03-26T20:06:15;24.50;64.50
67817;DHT22;54614;47.576;7.524;2023-03-26T20:08:43;24.50;65.30
67817;DHT22;54614;47.576;7.524;2023-03-26T20:11:24;24.50;66.20
67817;DHT22;54614;47.576;7.524;2023-03-26T20:14:01;24.50;65.50
67817;DHT22;54614;47.576;7.524;2023-03-26T20:16:35;24.60;65.00
67817;DHT22;54614;47.576;7.524;2023-03-26T20:19:01;24.40;66.50
67817;DHT22;54614;47.576;7.524;2023-03-26T20:21:30;24.40;64.70
67817;DHT22;54614;47.576;7.524;2023-03-26T20:23:57;24.50;65.60
67817;DHT22;54614;47.576;7.524;2023-03-26T20:26:26;24.40;65.50
67817;DHT22;54614;47.576;7.524;2023-03-26T20:28:52;24.40;65.70
67817;DHT22;54614;47.576;7.524;2023-03-26T20:31:23;24.40;65.60
67817;DHT22;54614;47.576;7.524;2023-03-26T20:33:52;24.50;65.00
67817;DHT22;54614;47.576;7.524;2023-03-26T20:36:19;24.70;65.20
67817;DHT22;54614;47.576;7.524;2023-03-26T20:38:45;24.50;65.50
67817;DHT22;54614;47.576;7.524;2023-03-26T20:41:17;24.80;66.10
67817;DHT22;54614;47.576;7.524;2023-03-26T20:43:47;24.50;65.20
67817;DHT22;54614;47.576;7.524;2023-03-26T20:46:21;24.50;65.10
67817;DHT22;54614;47.576;7.524;2023-03-26T20:48:48;24.40;64.90
67817;DHT22;54614;47.576;7.524;2023-03-26T20:51:16;24.50;65.00
67817;DHT22;54614;47.576;7.524;2023-03-26T20:53:45;24.50;65.20
67817;DHT22;54614;47.576;7.524;2023-03-26T20:56:13;24.80;65.40
67817;DHT22;54614;47.576;7.524;2023-03-26T20:58:44;24.40;65.00
67817;DHT22;54614;47.576;7.524;2023-03-26T21:01:14;24.50;65.50
67817;DHT22;54614;47.576;7.524;2023-03-26T21:03:42;24.40;64.80
67817;DHT22;54614;47.576;7.524;2023-03-26T21:06:11;24.50;65.20
67817;DHT22;54614;47.576;7.524;2023-03-26T21:08:39;24.70;64.90
67817;DHT22;54614;47.576;7.524;2023-03-26T21:11:23;24.70;65.00
67817;DHT22;54614;47.576;7.524;2023-03-26T21:14:14;24.50;64.80
67817;DHT22;54614;47.576;7.524;2023-03-26T21:16:45;24.30;64.60
67817;DHT22;54614;47.576;7.524;2023-03-26T21:19:11;24.50;65.30
67817;DHT22;54614;47.576;7.524;2023-03-26T21:22:02;24.40;65.30
67817;DHT22;54614;47.576;7.524;2023-03-26T21:25:27;24.40;65.00
67817;DHT22;54614;47.576;7.524;2023-03-26T21:30:46;24.40;65.20
67817;DHT22;54614;47.576;7.524;2023-03-26T21:33:12;24.50;65.50
67817;DHT22;54614;47.576;7.524;2023-03-26T21:35:39;24.30;64.90
67817;DHT22;54614;47.576;7.524;2023-03-26T21:38:06;24.40;66.60
67817;DHT22;54614;47.576;7.524;2023-03-26T21:40:34;24.40;66.10
67817;DHT22;54614;47.576;7.524;2023-03-26T21:43:00;24.50;66.00
67817;DHT22;54614;47.576;7.524;2023-03-26T21:45:26;24.40;66.50
67817;DHT22;54614;47.576;7.524;2023-03-26T21:47:53;24.40;65.50
67817;DHT22;54614;47.576;7.524;2023-03-26T21:50:20;24.40;65.90
67817;DHT22;54614;47.576;7.524;2023-03-26T21:52:49;24.40;65.90
67817;DHT22;54614;47.576;7.524;2023-03-26T21:55:21;24.30;65.70
67817;DHT22;54614;47.576;7.524;2023-03-26T22:03:59;24.40;65.40
67817;DHT22;54614;47.576;7.524;2023-03-26T22:06:31;24.30;65.70
67817;DHT22;54614;47.576;7.524;2023-03-26T22:09:04;24.20;65.50
67817;DHT22;54614;47.576;7.524;2023-03-26T22:11:30;24.30;65.90
67817;DHT22;54614;47.576;7.524;2023-03-26T22:13:56;24.40;66.90
67817;DHT22;54614;47.576;7.524;2023-03-26T22:16:22;24.30;66.50
67817;DHT22;54614;47.576;7.524;2023-03-26T22:18:52;24.30;66.60
67817;DHT22;54614;47.576;7.524;2023-03-26T22:21:18;24.20;65.10
67817;DHT22;54614;47.576;7.524;2023-03-26T22:23:45;24.50;66.30
67817;DHT22;54614;47.576;7.524;2023-03-26T22:26:17;24.20;66.00
67817;DHT22;54614;47.576;7.524;2023-03-26T22:28:45;24.30;66.00
67817;DHT22;54614;47.576;7.524;2023-03-26T22:31:12;24.20;65.30
67817;DHT22;54614;47.576;7.524;2023-03-26T22:33:39;24.60;66.10
67817;DHT22;54614;47.576;7.524;2023-03-26T22:36:10;24.30;66.30
67817;DHT22;54614;47.576;7.524;2023-03-26T22:38:37;24.30;65.80
67817;DHT22;54614;47.576;7.524;2023-03-26T22:41:03;24.20;66.00
67817;DHT22;54614;47.576;7.524;2023-03-26T22:43:29;24.20;66.20
67817;DHT22;54614;47.576;7.524;2023-03-26T22:45:55;24.30;66.20
67817;DHT22;54614;47.576;7.524;2023-03-26T22:48:22;24.20;65.10
67817;DHT22;54614;47.576;7.524;2023-03-26T22:51:06;24.20;66.40
67817;DHT22;54614;47.576;7.524;2023-03-26T22:53:34;24.40;65.60